Time;durP1;ratioP1;P1;durP2;ratioP2;P2;SDS_P1;SDS_P2;PMS_P1;PMS_P2;Temp;Humidity;BMP_temperature;BMP_pressure;BME280_temperature;BME280_humidity;BME280_pressure;Samples;Min_cycle;Max_cycle;Signal;HPM_P1;HPM_P2
2023/01/19 00:01:21;;;;;;;21.10;12.02;;;-1.60;14.00;;;;;;7365808;19;20014;-80
2023/01/19 00:03:54;;;;;;;26.40;14.13;;;-1.70;14.40;;;;;;7367133;19;20017;-80
2023/01/19 00:06:24;;;;;;;24.58;14.50;;;-1.60;15.10;;;;;;7365145;19;20019;-80
2023/01/19 00:08:54;;;;;;;20.08;12.48;;;-1.60;13.80;;;;;;7363908;19;20045;-81
2023/01/19 00:11:23;;;;;;;19.75;11.88;;;-1.50;13.60;;;;;;7387225;19;20022;-80
2023/01/19 00:13:53;;;;;;;19.70;11.73;;;-1.60;13.10;;;;;;7367833;19;20097;-80
2023/01/19 00:16:23;;;;;;;24.88;12.35;;;-1.60;13.00;;;;;;7366051;19;20363;-79
2023/01/19 00:18:56;;;;;;;21.60;11.93;;;-1.70;13.30;;;;;;7364850;19;20018;-79
2023/01/19 00:21:26;;;;;;;18.83;11.50;;;-1.70;13.80;;;;;;7366075;19;20530;-80
2023/01/19 00:23:56;;;;;;;30.67;17.05;;;-1.70;13.40;;;;;;7368835;19;20705;-79
2023/01/19 00:26:26;;;;;;;24.02;13.52;;;-1.70;13.60;;;;;;7386776;19;20014;-80
2023/01/19 00:28:55;;;;;;;17.92;11.70;;;-1.60;13.20;;;;;;7363369;19;20022;-81
2023/01/19 00:31:28;;;;;;;20.63;11.98;;;-1.70;12.50;;;;;;7365303;19;20267;-80
2023/01/19 00:34:01;;;;;;;21.83;12.13;;;-1.70;11.90;;;;;;7367249;19;20022;-80
2023/01/19 00:36:31;;;;;;;18.77;11.20;;;-1.60;11.90;;;;;;7365899;19;20094;-80
2023/01/19 00:39:01;;;;;;;18.50;11.10;;;-1.70;11.90;;;;;;7394789;19;20025;-79
2023/01/19 00:44:14;;;;;;;17.10;11.30;;;-1.70;11.90;;;;;;7391799;19;20018;-79
2023/01/19 00:46:44;;;;;;;19.73;11.30;;;-1.80;12.20;;;;;;7392613;19;20050;-80
2023/01/19 00:49:17;;;;;;;18.30;11.15;;;-1.80;12.70;;;;;;7388791;19;20018;-79
2023/01/19 00:51:47;;;;;;;20.17;11.50;;;-1.80;12.80;;;;;;7391390;19;20082;-81
2023/01/19 00:54:17;;;;;;;20.13;11.77;;;-1.80;13.10;;;;;;7396270;19;20074;-81
2023/01/19 00:56:47;;;;;;;18.92;10.75;;;-1.80;13.20;;;;;;7388891;19;20052;-80
2023/01/19 00:59:17;;;;;;;19.70;11.25;;;-1.80;12.90;;;;;;7363113;19;20011;-80
2023/01/19 01:01:47;;;;;;;17.77;11.13;;;-1.80;11.80;;;;;;7365101;19;20028;-79
2023/01/19 01:04:19;;;;;;;18.17;10.80;;;-1.80;11.70;;;;;;7366916;19;20021;-80
2023/01/19 01:06:49;;;;;;;15.98;10.57;;;-1.70;11.50;;;;;;7364912;19;20014;-80
2023/01/19 01:09:19;;;;;;;20.63;11.52;;;-1.70;11.80;;;;;;7364349;19;20013;-81
2023/01/19 01:11:49;;;;;;;19.98;11.43;;;-1.80;11.60;;;;;;7387926;19;20521;-80
2023/01/19 01:14:19;;;;;;;17.40;11.68;;;-1.80;11.80;;;;;;7367352;19;20789;-80
2023/01/19 01:16:49;;;;;;;19.63;11.40;;;-1.80;12.80;;;;;;7367166;19;20007;-80
2023/01/19 01:19:21;;;;;;;19.73;12.02;;;-1.90;12.00;;;;;;7362223;19;20020;-80
2023/01/19 01:21:51;;;;;;;18.75;11.45;;;-1.90;12.20;;;;;;7364357;19;20014;-80
2023/01/19 01:24:21;;;;;;;17.80;11.35;;;-1.80;12.50;;;;;;7368217;19;20348;-81
2023/01/19 01:26:51;;;;;;;17.27;11.18;;;-1.90;11.90;;;;;;7384692;19;20553;-80
2023/01/19 01:29:21;;;;;;;21.30;11.90;;;-1.90;11.90;;;;;;7361514;19;20022;-80
2023/01/19 01:31:50;;;;;;;16.35;10.98;;;-2.00;12.80;;;;;;7365083;19;20018;-80
2023/01/19 01:34:23;;;;;;;18.40;11.32;;;-2.10;13.60;;;;;;7365879;19;20014;-81
2023/01/19 01:36:53;;;;;;;19.02;11.40;;;-2.00;13.80;;;;;;7362518;19;20010;-81
2023/01/19 01:39:23;;;;;;;22.08;12.57;;;-2.00;13.90;;;;;;7358918;19;20367;-80
2023/01/19 01:41:53;;;;;;;21.02;12.73;;;-2.00;13.90;;;;;;7384583;19;20029;-82
2023/01/19 01:44:53;;;;;;;22.63;12.13;;;-2.00;13.80;;;;;;7360063;19;20054;-81
2023/01/19 01:47:28;;;;;;;18.60;11.10;;;-2.00;13.10;;;;;;7367368;19;20010;-80
2023/01/19 01:50:07;;;;;;;17.88;11.40;;;-2.10;12.80;;;;;;7366541;19;20043;-80
2023/01/19 01:52:43;;;;;;;22.08;13.02;;;-2.10;13.50;;;;;;7314055;19;21067;-80
2023/01/19 01:55:36;;;;;;;19.15;12.15;;;-2.10;13.20;;;;;;7365237;19;20022;-81
2023/01/19 01:58:08;;;;;;;19.63;12.18;;;-2.10;13.80;;;;;;7364932;19;20109;-80
2023/01/19 02:03:22;;;;;;;19.42;12.35;;;-2.10;14.60;;;;;;7363901;19;20014;-82
2023/01/19 02:05:58;;;;;;;21.73;12.93;;;-2.00;14.80;;;;;;7363936;19;20038;-81
2023/01/19 02:13:58;;;;;;;16.48;11.52;;;-1.90;12.50;;;;;;7363899;19;20861;-81
2023/01/19 02:16:28;;;;;;;20.98;10.98;;;-1.90;11.70;;;;;;7363125;19;20021;-81
2023/01/19 02:18:59;;;;;;;18.10;11.73;;;-1.90;10.80;;;;;;7360441;19;20018;-81
2023/01/19 02:21:37;;;;;;;17.70;10.85;;;-1.80;9.30;;;;;;7385602;19;20420;-81
2023/01/19 02:24:10;;;;;;;19.08;11.30;;;-1.80;7.60;;;;;;7365044;19;20014;-80
2023/01/19 02:26:43;;;;;;;15.80;10.80;;;-1.80;8.20;;;;;;7361793;19;20014;-81
2023/01/19 02:29:14;;;;;;;17.92;11.55;;;-1.80;7.40;;;;;;7361470;19;20025;-81
2023/01/19 02:31:45;;;;;;;18.13;11.38;;;-1.90;7.80;;;;;;7372605;19;20025;-82
2023/01/19 02:34:17;;;;;;;18.25;11.93;;;-1.80;8.20;;;;;;7368227;19;20010;-81
2023/01/19 02:36:51;;;;;;;18.27;11.25;;;-1.90;8.20;;;;;;7361409;19;20078;-82
2023/01/19 02:39:30;;;;;;;20.38;11.80;;;-1.90;8.70;;;;;;7381061;19;20478;-80
2023/01/19 02:42:04;;;;;;;17.30;10.90;;;-1.90;8.20;;;;;;7359634;19;20032;-82
2023/01/19 02:44:36;;;;;;;17.45;11.85;;;-1.90;8.20;;;;;;7360673;19;20010;-82
2023/01/19 02:47:07;;;;;;;17.30;10.80;;;-2.00;7.70;;;;;;7361110;19;20045;-81
2023/01/19 02:49:37;;;;;;;20.65;11.63;;;-2.00;7.80;;;;;;7359252;19;20023;-81
2023/01/19 02:52:09;;;;;;;20.27;11.73;;;-2.00;8.10;;;;;;7360317;19;20055;-81
2023/01/19 02:54:55;;;;;;;19.15;11.55;;;-2.00;8.00;;;;;;7382278;19;20018;-81
2023/01/19 02:57:46;;;;;;;17.85;11.52;;;-2.00;8.10;;;;;;7360873;19;20042;-82
2023/01/19 03:00:31;;;;;;;17.83;12.13;;;-2.00;8.10;;;;;;7362696;19;20455;-82
2023/01/19 03:03:17;;;;;;;17.75;10.98;;;-2.00;8.10;;;;;;7360982;19;20017;-80
2023/01/19 03:06:00;;;;;;;16.50;10.95;;;-2.10;8.00;;;;;;7360668;19;20048;-81
2023/01/19 03:08:43;;;;;;;20.23;11.63;;;-2.00;8.10;;;;;;7359395;19;20500;-82
2023/01/19 03:11:16;;;;;;;15.60;10.82;;;-2.10;8.00;;;;;;7360418;19;20011;-82
2023/01/19 03:13:50;;;;;;;23.00;12.50;;;-2.10;8.60;;;;;;7361604;19;20026;-80
2023/01/19 03:16:23;;;;;;;20.02;12.30;;;-2.10;8.70;;;;;;7360114;19;20018;-80
2023/01/19 03:18:56;;;;;;;18.50;11.63;;;-2.10;9.00;;;;;;7358806;19;20372;-82
2023/01/19 03:21:29;;;;;;;17.58;11.73;;;-2.10;8.80;;;;;;7383489;19;20081;-82
2023/01/19 03:24:02;;;;;;;17.92;11.25;;;-2.10;8.70;;;;;;7369043;19;20026;-82
2023/01/19 03:26:41;;;;;;;21.80;11.30;;;-2.20;9.10;;;;;;7367384;19;20474;-81
2023/01/19 03:29:14;;;;;;;17.55;11.18;;;-2.20;9.80;;;;;;7366781;19;20058;-82
2023/01/19 03:31:48;;;;;;;16.45;11.30;;;-2.30;10.20;;;;;;7369264;19;20112;-81
2023/01/19 03:34:20;;;;;;;18.60;11.35;;;-2.30;10.70;;;;;;7369874;19;20095;-82
2023/01/19 03:36:53;;;;;;;18.98;11.60;;;-2.30;11.30;;;;;;7369697;19;20019;-81
2023/01/19 03:39:25;;;;;;;15.85;11.13;;;-2.40;11.70;;;;;;7389306;19;20029;-81
2023/01/19 03:42:02;;;;;;;19.85;11.60;;;-2.30;12.80;;;;;;7370598;19;20011;-82
2023/01/19 03:44:35;;;;;;;20.35;11.50;;;-2.30;13.70;;;;;;7368742;19;20015;-82
2023/01/19 03:47:08;;;;;;;18.67;11.95;;;-2.40;13.70;;;;;;7370870;19;20018;-81
2023/01/19 03:49:39;;;;;;;19.92;12.50;;;-2.40;13.90;;;;;;7364856;19;20541;-82
2023/01/19 03:52:09;;;;;;;21.38;13.32;;;-2.50;13.90;;;;;;7365925;19;20117;-82
2023/01/19 03:54:39;;;;;;;20.13;12.00;;;-2.50;14.00;;;;;;7388403;19;20022;-82
2023/01/19 03:57:12;;;;;;;21.63;12.43;;;-2.50;14.40;;;;;;7370153;19;20018;-83
2023/01/19 03:59:42;;;;;;;20.52;12.10;;;-2.50;14.70;;;;;;7363612;19;20029;-82
2023/01/19 04:02:11;;;;;;;20.00;12.43;;;-2.50;14.50;;;;;;7366645;19;20032;-82
2023/01/19 04:04:41;;;;;;;20.85;12.77;;;-2.50;14.80;;;;;;7366525;19;20019;-81
2023/01/19 04:07:12;;;;;;;25.23;13.73;;;-2.50;14.80;;;;;;7366195;19;20019;-81
2023/01/19 04:09:42;;;;;;;23.52;13.48;;;-2.50;14.80;;;;;;7384749;19;20573;-81
2023/01/19 04:12:15;;;;;;;21.00;13.25;;;-2.50;14.80;;;;;;7366099;19;20010;-80
2023/01/19 04:14:44;;;;;;;22.42;13.55;;;-2.50;14.80;;;;;;7366150;19;20022;-81
2023/01/19 04:17:14;;;;;;;21.83;13.45;;;-2.50;15.40;;;;;;7365956;19;20370;-81
2023/01/19 04:19:44;;;;;;;21.58;13.68;;;-2.50;15.50;;;;;;7365201;19;20030;-82
2023/01/19 04:22:14;;;;;;;24.50;14.55;;;-2.50;15.30;;;;;;7364541;19;20478;-81
2023/01/19 04:24:44;;;;;;;20.23;14.27;;;-2.50;14.80;;;;;;7382124;19;20391;-83
2023/01/19 04:27:16;;;;;;;21.45;14.52;;;-2.50;14.80;;;;;;7387115;19;20483;-83
2023/01/19 04:29:46;;;;;;;21.00;13.48;;;-2.50;14.80;;;;;;7362298;19;20086;-81
2023/01/19 04:32:16;;;;;;;23.85;13.18;;;-2.50;14.80;;;;;;7366119;19;20002;-82
2023/01/19 04:34:46;;;;;;;21.38;12.68;;;-2.50;14.80;;;;;;7363992;19;20022;-82
2023/01/19 04:37:16;;;;;;;19.17;11.98;;;-2.50;14.80;;;;;;7365714;19;20018;-81
2023/01/19 04:39:46;;;;;;;18.58;12.00;;;-2.60;14.20;;;;;;7362584;19;20424;-82
2023/01/19 04:42:18;;;;;;;19.17;12.20;;;-2.50;13.40;;;;;;7385372;19;20010;-81
2023/01/19 04:44:48;;;;;;;18.95;11.55;;;-2.60;12.50;;;;;;7363849;19;20611;-82
2023/01/19 04:47:18;;;;;;;17.50;12.73;;;-2.70;12.90;;;;;;7364918;19;20489;-81
2023/01/19 04:49:48;;;;;;;20.67;12.32;;;-2.70;13.80;;;;;;7364608;19;20014;-82
2023/01/19 04:52:18;;;;;;;21.20;12.52;;;-2.80;13.80;;;;;;7367137;19;20013;-82
2023/01/19 04:54:48;;;;;;;22.42;13.10;;;-2.70;14.60;;;;;;7364633;19;20015;-82
2023/01/19 04:57:20;;;;;;;22.33;13.05;;;-2.70;14.70;;;;;;7387409;19;20024;-81
2023/01/19 04:59:50;;;;;;;18.63;12.07;;;-2.70;14.70;;;;;;7361661;19;20039;-82
2023/01/19 05:02:21;;;;;;;20.58;12.48;;;-2.70;14.60;;;;;;7363574;19;20118;-83
2023/01/19 05:04:52;;;;;;;23.20;12.60;;;-2.70;14.70;;;;;;7364768;19;20006;-82
2023/01/19 05:07:22;;;;;;;18.58;11.57;;;-2.70;14.70;;;;;;7363498;19;20039;-82
2023/01/19 05:09:52;;;;;;;20.17;11.98;;;-2.70;14.60;;;;;;7361267;19;20032;-83
2023/01/19 05:12:25;;;;;;;24.02;12.02;;;-2.70;14.70;;;;;;7386320;19;20014;-83
2023/01/19 05:14:54;;;;;;;19.30;11.70;;;-2.70;14.70;;;;;;7363689;19;20439;-83
2023/01/19 05:17:24;;;;;;;21.15;11.80;;;-2.80;14.60;;;;;;7362801;19;20015;-83
2023/01/19 05:19:54;;;;;;;20.85;12.90;;;-2.80;14.60;;;;;;7361414;19;20877;-83
2023/01/19 05:22:24;;;;;;;18.70;11.77;;;-2.80;14.70;;;;;;7362861;19;20010;-83
2023/01/19 05:24:54;;;;;;;20.70;12.25;;;-2.80;15.00;;;;;;7363210;19;20010;-81
2023/01/19 05:27:26;;;;;;;22.00;13.27;;;-2.80;15.60;;;;;;7384547;19;20015;-82
2023/01/19 05:29:56;;;;;;;19.35;13.38;;;-2.80;15.80;;;;;;7360682;19;20015;-82
2023/01/19 05:32:26;;;;;;;17.83;11.60;;;-2.80;15.60;;;;;;7363477;19;20006;-82
2023/01/19 05:34:56;;;;;;;21.88;13.23;;;-2.80;16.20;;;;;;7363346;19;20114;-83
2023/01/19 05:37:26;;;;;;;26.27;15.10;;;-2.80;15.80;;;;;;7362285;19;20844;-83
2023/01/19 05:39:56;;;;;;;24.90;14.35;;;-2.80;15.50;;;;;;7360351;19;20014;-82
2023/01/19 05:42:28;;;;;;;22.65;13.25;;;-2.80;14.60;;;;;;7384442;19;20019;-82
2023/01/19 05:45:01;;;;;;;23.23;13.10;;;-2.90;14.60;;;;;;7360815;19;20014;-82
2023/01/19 05:47:31;;;;;;;25.58;14.85;;;-2.90;14.60;;;;;;7364299;19;20042;-83
2023/01/19 05:50:02;;;;;;;20.35;13.73;;;-2.90;16.00;;;;;;7361021;19;20015;-83
2023/01/19 05:52:32;;;;;;;24.33;13.88;;;-2.90;16.30;;;;;;7363085;19;20002;-84
2023/01/19 05:55:01;;;;;;;24.80;14.48;;;-2.90;17.30;;;;;;7362662;19;20073;-82
2023/01/19 05:57:34;;;;;;;21.30;13.13;;;-2.90;17.70;;;;;;7386026;19;20027;-83
2023/01/19 06:00:05;;;;;;;22.92;14.70;;;-3.00;17.30;;;;;;7359622;19;20534;-83
2023/01/19 06:02:34;;;;;;;27.50;14.52;;;-3.00;17.90;;;;;;7362967;19;20017;-83
2023/01/19 06:05:04;;;;;;;23.63;13.20;;;-2.90;18.00;;;;;;7365443;19;20379;-81
2023/01/19 06:07:34;;;;;;;22.70;14.75;;;-3.00;17.30;;;;;;7366600;19;20026;-84
2023/01/19 06:10:04;;;;;;;24.40;14.98;;;-3.10;17.60;;;;;;7360690;19;20095;-81
2023/01/19 06:12:37;;;;;;;30.52;15.65;;;-3.10;17.90;;;;;;7383542;19;20011;-82
2023/01/19 06:15:08;;;;;;;22.88;14.55;;;-3.20;18.00;;;;;;7361562;19;20015;-83
2023/01/19 06:17:38;;;;;;;24.00;15.20;;;-3.20;18.50;;;;;;7361164;19;20016;-84
2023/01/19 06:20:09;;;;;;;25.92;14.90;;;-3.20;19.30;;;;;;7361699;19;20014;-82
2023/01/19 06:22:39;;;;;;;23.55;15.27;;;-3.20;20.20;;;;;;7361669;19;20010;-83
2023/01/19 06:25:09;;;;;;;26.00;15.45;;;-3.20;19.90;;;;;;7361571;19;20504;-83
2023/01/19 06:27:45;;;;;;;27.60;16.02;;;-3.20;21.10;;;;;;7384571;19;20019;-82
2023/01/19 06:30:16;;;;;;;24.10;14.27;;;-3.20;20.40;;;;;;7359282;19;20007;-83
2023/01/19 06:32:46;;;;;;;22.73;15.02;;;-3.00;21.20;;;;;;7362899;19;20041;-83
2023/01/19 06:35:17;;;;;;;24.55;13.50;;;-2.90;21.90;;;;;;7361541;19;20098;-83
2023/01/19 06:37:47;;;;;;;22.77;13.77;;;-2.70;20.70;;;;;;7360672;19;20021;-83
2023/01/19 06:40:17;;;;;;;24.90;13.43;;;-2.70;19.10;;;;;;7359746;19;20018;-83
2023/01/19 06:42:50;;;;;;;25.33;13.93;;;-2.60;18.60;;;;;;7361872;19;20014;-83
2023/01/19 06:45:20;;;;;;;20.30;12.98;;;-2.40;17.10;;;;;;7385879;19;20021;-83
2023/01/19 06:47:50;;;;;;;22.92;13.52;;;-2.30;15.70;;;;;;7360544;19;20025;-82
2023/01/19 06:50:20;;;;;;;21.20;12.05;;;-2.20;15.80;;;;;;7359706;19;20701;-83
2023/01/19 06:52:51;;;;;;;20.17;12.07;;;-2.10;14.00;;;;;;7363585;19;20006;-83
2023/01/19 06:55:21;;;;;;;20.42;12.63;;;-1.90;14.00;;;;;;7360703;19;20011;-83
2023/01/19 06:58:00;;;;;;;22.42;13.10;;;-1.90;12.60;;;;;;7364564;19;20129;-83
2023/01/19 07:00:30;;;;;;;21.85;13.90;;;-1.90;11.70;;;;;;7383435;19;20015;-83
2023/01/19 07:03:00;;;;;;;26.02;12.98;;;-1.90;11.10;;;;;;7369968;19;20058;-83
2023/01/19 07:05:30;;;;;;;21.25;11.82;;;-2.00;10.20;;;;;;7369934;19;20131;-82
2023/01/19 07:08:00;;;;;;;20.10;12.80;;;-2.00;10.50;;;;;;7365232;19;20117;-82
2023/01/19 07:10:30;;;;;;;21.13;12.15;;;-2.00;10.50;;;;;;7359259;19;20086;-83
2023/01/19 07:13:23;;;;;;;18.85;12.63;;;-2.00;9.70;;;;;;7361089;19;20023;-83
2023/01/19 07:15:53;;;;;;;18.88;11.63;;;-2.00;8.90;;;;;;7360876;19;20014;-83
2023/01/19 07:18:22;;;;;;;18.50;11.15;;;-2.00;8.80;;;;;;7380353;19;20018;-83
2023/01/19 07:20:52;;;;;;;20.25;11.15;;;-2.00;8.80;;;;;;7362097;19;20086;-83
2023/01/19 07:23:22;;;;;;;20.08;11.32;;;-2.00;7.60;;;;;;7361151;19;20090;-83
2023/01/19 07:25:52;;;;;;;19.05;11.63;;;-1.90;7.20;;;;;;7360462;19;20026;-83
2023/01/19 07:28:24;;;;;;;16.77;10.48;;;-1.90;5.50;;;;;;7358753;19;20011;-83
2023/01/19 07:30:55;;;;;;;16.60;10.70;;;-1.90;5.50;;;;;;7359766;19;20011;-82
2023/01/19 07:33:26;;;;;;;19.23;11.60;;;-1.90;5.50;;;;;;7383160;19;20086;-83
2023/01/19 07:35:56;;;;;;;21.38;11.75;;;-1.90;5.70;;;;;;7359253;19;20010;-83
2023/01/19 07:38:26;;;;;;;18.67;11.45;;;-2.00;6.20;;;;;;7358664;19;20015;-83
2023/01/19 07:41:01;;;;;;;17.63;11.25;;;-1.90;6.70;;;;;;7362198;19;20377;-84
2023/01/19 07:43:37;;;;;;;18.67;11.07;;;-1.90;6.50;;;;;;7361367;19;20015;-83
2023/01/19 07:46:09;;;;;;;18.65;10.02;;;-1.80;5.90;;;;;;7359040;19;20010;-82
2023/01/19 07:48:43;;;;;;;17.00;10.80;;;-1.80;5.00;;;;;;7379416;19;20444;-83
2023/01/19 07:51:16;;;;;;;26.40;11.77;;;-1.60;4.80;;;;;;7359395;19;20020;-84
2023/01/19 07:53:46;;;;;;;22.13;12.43;;;-1.50;4.50;;;;;;7361765;19;20083;-83
2023/01/19 07:56:16;;;;;;;18.92;11.75;;;-1.50;4.50;;;;;;7359955;19;20564;-83
2023/01/19 07:58:51;;;;;;;17.85;10.95;;;-1.50;3.40;;;;;;7358465;19;20011;-84
2023/01/19 08:01:21;;;;;;;19.48;11.75;;;-1.50;1.50;;;;;;7358704;19;20011;-84
2023/01/19 08:03:51;;;;;;;19.65;10.80;;;-1.40;1.30;;;;;;7361878;19;20011;-83
2023/01/19 08:06:25;;;;;;;16.98;10.23;;;-1.40;1.00;;;;;;7379476;19;20087;-83
2023/01/19 08:08:55;;;;;;;20.42;11.90;;;-1.40;1.00;;;;;;7359234;19;20018;-83
2023/01/19 08:11:25;;;;;;;20.27;11.43;;;-1.30;1.00;;;;;;7366460;19;20021;-84
2023/01/19 08:13:58;;;;;;;17.30;10.65;;;-1.30;1.00;;;;;;7365208;19;20633;-84
2023/01/19 08:16:27;;;;;;;19.00;10.55;;;-1.20;1.10;;;;;;7365562;19;20038;-83
2023/01/19 08:18:58;;;;;;;15.88;9.80;;;-1.20;1.00;;;;;;7364644;19;20010;-83
2023/01/19 08:21:32;;;;;;;16.60;9.63;;;-1.20;1.00;;;;;;7388406;19;20584;-84
2023/01/19 08:24:02;;;;;;;16.98;9.93;;;-1.10;1.00;;;;;;7367389;19;20033;-84
2023/01/19 08:26:33;;;;;;;17.63;10.23;;;-1.00;1.00;;;;;;7364216;19;20010;-84
2023/01/19 08:29:07;;;;;;;23.02;11.00;;;-1.10;1.00;;;;;;7363835;19;20113;-83
2023/01/19 08:31:37;;;;;;;17.17;10.32;;;-1.00;1.00;;;;;;7364489;19;20169;-83
2023/01/19 08:34:07;;;;;;;17.20;10.73;;;-1.00;1.00;;;;;;7368710;19;20758;-83
2023/01/19 08:36:37;;;;;;;17.27;10.82;;;-1.00;1.00;;;;;;7390199;19;20033;-81
2023/01/19 08:39:07;;;;;;;15.65;10.48;;;-0.80;1.00;;;;;;7362744;19;20018;-84
2023/01/19 08:41:36;;;;;;;14.85;9.15;;;-0.70;1.00;;;;;;7365620;19;20520;-84
2023/01/19 08:44:10;;;;;;;14.48;9.10;;;-0.60;1.00;;;;;;7363252;19;20382;-84
2023/01/19 08:46:40;;;;;;;14.23;8.93;;;-0.50;1.00;;;;;;7365693;19;20133;-83
2023/01/19 08:49:12;;;;;;;33.90;20.35;;;-0.40;1.00;;;;;;7366635;19;20015;-83
2023/01/19 08:51:45;;;;;;;13.00;9.07;;;-0.20;1.00;;;;;;7390207;19;20027;-84
2023/01/19 08:54:16;;;;;;;11.48;8.23;;;-0.20;1.00;;;;;;7369016;19;20022;-84
2023/01/19 08:56:47;;;;;;;11.55;7.95;;;-0.20;1.00;;;;;;7365336;19;20015;-84
2023/01/19 08:59:20;;;;;;;18.92;8.05;;;-0.20;1.00;;;;;;7361414;19;20038;-82
2023/01/19 09:01:49;;;;;;;12.90;7.50;;;-0.20;1.00;;;;;;7362737;19;20055;-83
2023/01/19 09:04:20;;;;;;;15.65;9.35;;;-0.20;1.00;;;;;;7365809;19;20553;-83
2023/01/19 09:06:50;;;;;;;17.83;8.43;;;-0.10;1.00;;;;;;7363090;19;20057;-84
2023/01/19 09:09:20;;;;;;;17.33;9.73;;;0.00;1.00;;;;;;7383622;19;20317;-82
2023/01/19 09:11:52;;;;;;;19.80;10.20;;;0.00;1.00;;;;;;7364010;19;20039;-82
2023/01/19 09:14:28;;;;;;;16.50;9.00;;;0.10;1.00;;;;;;7362898;19;20031;-83
2023/01/19 09:16:58;;;;;;;15.65;9.60;;;0.10;1.00;;;;;;7367584;19;20088;-83
2023/01/19 09:19:27;;;;;;;15.63;9.45;;;0.10;1.00;;;;;;7363356;19;20019;-82
2023/01/19 09:21:58;;;;;;;17.85;9.60;;;0.10;1.00;;;;;;7361592;19;20447;-81
2023/01/19 09:24:28;;;;;;;15.93;8.75;;;0.20;1.00;;;;;;7388546;19;20019;-82
2023/01/19 09:27:01;;;;;;;13.82;8.90;;;0.20;1.00;;;;;;7362916;19;20010;-83
2023/01/19 09:29:33;;;;;;;13.60;9.27;;;0.30;1.00;;;;;;7360852;19;20018;-82
2023/01/19 09:32:05;;;;;;;16.45;8.70;;;0.40;1.00;;;;;;7361968;19;20014;-82
2023/01/19 09:34:35;;;;;;;15.23;8.57;;;0.40;1.00;;;;;;7362039;19;20085;-83
2023/01/19 09:37:05;;;;;;;13.68;8.63;;;0.50;1.00;;;;;;7363158;19;20024;-82
2023/01/19 09:39:35;;;;;;;13.50;8.55;;;0.50;1.00;;;;;;7387275;19;20628;-82
2023/01/19 09:42:16;;;;;;;10.50;7.00;;;0.60;1.00;;;;;;7363537;19;20370;-82
2023/01/19 09:44:52;;;;;;;10.55;6.45;;;0.50;1.00;;;;;;7360945;19;20018;-82
2023/01/19 09:47:29;;;;;;;13.90;7.05;;;0.80;1.00;;;;;;7362259;19;20025;-82
2023/01/19 09:50:04;;;;;;;10.80;6.28;;;0.70;1.00;;;;;;7361044;19;20433;-83
2023/01/19 09:52:41;;;;;;;12.60;6.68;;;0.80;1.00;;;;;;7360369;19;20078;-82
2023/01/19 09:55:21;;;;;;;13.10;7.80;;;0.90;1.00;;;;;;7364118;19;20364;-81
2023/01/19 09:57:52;;;;;;;8.98;5.90;;;1.10;1.00;;;;;;7364982;19;20026;-82
2023/01/19 10:00:26;;;;;;;12.85;6.57;;;1.20;1.00;;;;;;7383252;19;20014;-83
2023/01/19 10:03:01;;;;;;;15.27;6.47;;;1.20;1.00;;;;;;7361483;19;20015;-82
2023/01/19 10:05:35;;;;;;;10.93;6.10;;;1.30;1.00;;;;;;7362226;19;20015;-82
2023/01/19 10:08:20;;;;;;;10.75;6.05;;;1.30;1.00;;;;;;7362751;19;20014;-79
2023/01/19 10:10:54;;;;;;;8.52;5.60;;;1.40;1.00;;;;;;7362385;19;20025;-82
2023/01/19 10:13:35;;;;;;;8.15;6.05;;;1.40;1.00;;;;;;7363825;19;20538;-83
2023/01/19 10:16:21;;;;;;;10.88;5.93;;;1.40;1.00;;;;;;7363823;19;20007;-83
2023/01/19 10:18:53;;;;;;;9.63;5.65;;;1.40;1.00;;;;;;7362638;19;20022;-82
2023/01/19 10:21:26;;;;;;;10.95;5.60;;;1.40;1.00;;;;;;7385951;19;20381;-81
2023/01/19 10:24:00;;;;;;;10.40;5.60;;;1.50;1.00;;;;;;7363392;19;20074;-81
2023/01/19 10:26:35;;;;;;;9.80;5.65;;;1.60;1.00;;;;;;7362790;19;20606;-83
2023/01/19 10:29:09;;;;;;;9.23;5.85;;;1.60;1.00;;;;;;7361884;19;20010;-82
2023/01/19 10:31:46;;;;;;;9.95;5.40;;;1.60;1.00;;;;;;7363259;19;20014;-82
2023/01/19 10:34:17;;;;;;;9.23;5.55;;;1.70;1.00;;;;;;7365536;19;20046;-80
2023/01/19 10:36:55;;;;;;;16.40;9.25;;;1.80;1.00;;;;;;7362632;19;20029;-81
2023/01/19 10:39:25;;;;;;;9.23;5.38;;;1.90;1.00;;;;;;7384800;19;20026;-81
2023/01/19 10:41:55;;;;;;;13.98;5.28;;;1.90;1.00;;;;;;7362166;19;20370;-82
2023/01/19 10:44:27;;;;;;;6.72;4.97;;;2.00;1.00;;;;;;7364433;19;20011;-81
2023/01/19 10:47:01;;;;;;;8.85;5.35;;;2.10;1.00;;;;;;7363518;19;20024;-81
2023/01/19 10:49:37;;;;;;;7.93;5.10;;;2.20;1.00;;;;;;7363510;19;20086;-81
2023/01/19 10:52:10;;;;;;;8.20;5.40;;;2.10;1.00;;;;;;7362949;19;20026;-81
2023/01/19 10:54:40;;;;;;;12.30;4.82;;;2.20;1.00;;;;;;7384833;19;20378;-82
2023/01/19 10:57:12;;;;;;;7.45;5.22;;;2.10;1.00;;;;;;7363065;19;20010;-81
2023/01/19 10:59:50;;;;;;;6.45;4.22;;;2.30;1.00;;;;;;7361675;19;20014;-81
2023/01/19 11:02:25;;;;;;;9.23;4.95;;;2.40;1.00;;;;;;7361738;19;20094;-80
2023/01/19 11:04:58;;;;;;;7.45;5.03;;;2.30;1.00;;;;;;7361624;19;20027;-82
2023/01/19 11:07:31;;;;;;;7.53;4.80;;;2.10;1.00;;;;;;7360713;19;20023;-83
2023/01/19 11:10:21;;;;;;;11.25;5.05;;;2.10;1.00;;;;;;7362396;19;20014;-82
2023/01/19 11:13:00;;;;;;;10.05;6.78;;;2.10;1.00;;;;;;7361672;19;20712;-81
2023/01/19 11:15:36;;;;;;;8.55;4.85;;;2.00;1.00;;;;;;7383681;19;20045;-80
2023/01/19 11:18:09;;;;;;;7.90;4.90;;;2.20;1.00;;;;;;7363219;19;20112;-82
2023/01/19 11:20:52;;;;;;;9.63;4.82;;;2.20;1.00;;;;;;7362228;19;20015;-81
2023/01/19 11:23:27;;;;;;;10.20;5.88;;;2.30;1.00;;;;;;7358062;19;20014;-79
2023/01/19 11:26:00;;;;;;;7.57;4.93;;;2.30;1.00;;;;;;7360183;19;20018;-79
2023/01/19 11:28:34;;;;;;;6.60;4.88;;;2.20;1.00;;;;;;7361170;19;20673;-80
2023/01/19 11:31:17;;;;;;;11.43;5.97;;;2.30;1.00;;;;;;7362127;19;20024;-80
2023/01/19 11:33:54;;;;;;;9.68;4.82;;;2.40;1.00;;;;;;7360184;19;20443;-80
2023/01/19 11:36:27;;;;;;;8.00;5.50;;;2.30;1.00;;;;;;7383639;19;20209;-80
2023/01/19 11:38:58;;;;;;;12.90;4.82;;;2.50;1.00;;;;;;7360280;19;20495;-80
2023/01/19 11:41:31;;;;;;;9.45;5.90;;;2.50;1.00;;;;;;7359857;19;20022;-80
2023/01/19 11:44:10;;;;;;;7.35;4.63;;;2.60;1.00;;;;;;7363297;19;20014;-79
2023/01/19 11:46:44;;;;;;;11.30;5.20;;;2.60;1.00;;;;;;7369085;19;20006;-79
2023/01/19 11:49:27;;;;;;;7.93;4.68;;;2.40;1.00;;;;;;7367352;19;20406;-80
2023/01/19 11:52:03;;;;;;;6.97;4.85;;;2.40;1.00;;;;;;7367804;19;20011;-79
2023/01/19 11:54:46;;;;;;;7.82;5.13;;;2.20;1.00;;;;;;7390345;19;20102;-80
2023/01/19 11:57:19;;;;;;;7.95;4.95;;;2.20;1.00;;;;;;7368004;19;20007;-80
2023/01/19 11:59:48;;;;;;;8.95;5.10;;;2.00;1.00;;;;;;7367058;19;20038;-80
2023/01/19 12:02:27;;;;;;;7.07;4.90;;;1.90;1.00;;;;;;7366156;19;20549;-81
2023/01/19 12:05:06;;;;;;;8.73;4.70;;;2.00;1.00;;;;;;7364295;19;20018;-82
2023/01/19 12:07:39;;;;;;;7.95;5.07;;;1.90;1.00;;;;;;7365700;19;20122;-81
2023/01/19 12:10:22;;;;;;;7.78;5.45;;;1.80;1.00;;;;;;7363270;19;20011;-81
2023/01/19 12:12:53;;;;;;;10.00;5.68;;;1.80;1.00;;;;;;7366148;19;20025;-81
2023/01/19 12:15:34;;;;;;;6.90;4.97;;;1.80;1.00;;;;;;7387498;19;20037;-81
2023/01/19 12:18:14;;;;;;;12.55;5.57;;;1.80;1.00;;;;;;7364884;19;20011;-80
2023/01/19 12:20:50;;;;;;;9.73;5.68;;;1.70;1.00;;;;;;7367951;19;20783;-81
2023/01/19 12:23:31;;;;;;;13.05;6.03;;;1.70;1.00;;;;;;7368099;19;20041;-81
2023/01/19 12:26:26;;;;;;;8.75;6.00;;;1.60;1.00;;;;;;7364441;19;20034;-79
2023/01/19 12:29:00;;;;;;;10.57;6.63;;;1.70;1.00;;;;;;7364825;19;20015;-79
2023/01/19 12:31:32;;;;;;;8.90;6.22;;;1.40;1.00;;;;;;7365398;19;20014;-81
2023/01/19 12:34:30;;;;;;;13.60;7.55;;;1.30;1.00;;;;;;7368420;19;20025;-80
2023/01/19 12:37:06;;;;;;;12.40;7.32;;;1.00;1.00;;;;;;7364867;19;20436;-79
2023/01/19 12:39:51;;;;;;;11.32;7.03;;;0.90;1.00;;;;;;7385003;19;20817;-80
2023/01/19 12:42:21;;;;;;;11.68;7.78;;;0.90;1.00;;;;;;7364272;19;20018;-80
2023/01/19 12:45:05;;;;;;;12.05;7.68;;;1.00;1.00;;;;;;7364859;19;20047;-79
2023/01/19 12:47:36;;;;;;;12.97;7.77;;;1.00;1.00;;;;;;7363875;19;20021;-81
2023/01/19 12:50:15;;;;;;;14.27;8.45;;;1.00;1.20;;;;;;7359177;19;20231;-79
2023/01/19 12:52:55;;;;;;;13.38;6.70;;;0.90;1.60;;;;;;7364801;19;20063;-80
2023/01/19 12:55:29;;;;;;;10.63;7.85;;;0.80;2.70;;;;;;7360252;19;20018;-80
2023/01/19 12:58:03;;;;;;;13.35;7.70;;;0.90;4.80;;;;;;7365067;19;20040;-81
2023/01/19 13:00:36;;;;;;;10.23;7.07;;;0.90;3.90;;;;;;7383092;19;20042;-79
2023/01/19 13:03:36;;;;;;;11.75;7.15;;;1.00;4.50;;;;;;7362320;19;20006;-80
2023/01/19 13:06:06;;;;;;;11.82;7.13;;;1.10;5.30;;;;;;7359703;19;20010;-80
2023/01/19 13:09:05;;;;;;;10.50;7.00;;;1.00;3.90;;;;;;7362797;19;20014;-80
2023/01/19 13:11:35;;;;;;;10.50;6.65;;;1.10;4.20;;;;;;7365954;19;20018;-79
2023/01/19 13:14:37;;;;;;;9.60;6.50;;;1.20;2.90;;;;;;7360017;19;20010;-81
2023/01/19 13:17:26;;;;;;;11.73;6.20;;;1.20;3.00;;;;;;7361195;19;20010;-82
2023/01/19 13:20:20;;;;;;;11.23;6.35;;;1.30;3.00;;;;;;7362004;19;20011;-81
2023/01/19 13:23:12;;;;;;;11.20;6.03;;;1.40;3.00;;;;;;7365662;19;20505;-82